Airfield :
LOGIN :

Register | Disclaimer

   EN    FR    IT 

 










Legend :    VFR   Marginal VFR   IFR   Intensive IFR   Very Intensive IFR
Visi :
Ceiling :
>= 8 km
>= 3000ft
5 to 8 km
1000 to 3000 ft
1500m to 5 km
500 to 1000 ft
800 to 1500m
200 to 500 ft
< 800m
< 200 ft
Symbols :   Thunderstorms  Fog  Heavy snow  Heavy precipitations  Wind > 20 kt
SIGMETs :     Misc.  Thunderstorms  Icing  Turbulence  Mountain Waves  Volcanic Ashes






- Airport Elevation : 645 ft
- IATA code : DLE


LFGJ - Dole Tavaux

CURRENT METAR :
  • 201900Z AUTO 10004KT 070V170 6000 RA FEW029/// SCT068/// OVC088/// ///CB 15/14 Q1009

EXPIRED METARs :
  • 201830Z AUTO 25011KT 230V290 4000 +TSRA BR FEW008/// SCT028/// BKN035/// ///CB 15/15 Q1010
  • 201800Z AUTO 30003KT 9999 -RA FEW011/// SCT020/// BKN032/// ///CB 16/15 Q1007
  • 201730Z AUTO 06004KT 030V130 7000 -RA FEW022/// SCT030/// BKN047/// ///CB 15/15 Q1006
  • 201700Z AUTO 10005KT 9999 RA ///CB 15/15 Q1006 TEMPO 3000 SHRA
  • 201630Z AUTO 09007KT 8000 -RA ///TCU 15/15 Q1005 TEMPO 3000 SHRA BKN030CB

TAF TAF LFGJ
Valid from the 20 at 15:00 until the 21 at 00:00 UTC


201400Z 2015/2024 10005KT 9999 SCT040 BKN100
TEMPO 2015/2024 VRB10G20KT 3000 SHRA BKN030CB
PROB40
TEMPO 2015/2022 -TSRA



MET'MAP, your aeronautical weather chart ! - Copyright ORBIFLY December 2007 - Disclaimer

ORBIFLY MET'MAP TEAM :

Programming & Development : Alexandra Zaïnal
Concept & Development : Baudouin d'Aumeries
Co-Development & Prog : Marc-Olivier Méhu
Technical & hardware support : Manuel Goepfert

Contact : metmap@orbifly.com




SOURCES & CREDITS :

   NOAA